Latest Weather Observations for Fort Denison

IDN60901

Issued at 12:31 am EDT Sunday 7 February 2016 (issued every 10 minutes, with the page automatically refreshed every 10 minutes)

About weather observations | Map of Sydney area stations | Latest observations for Sydney area | Other Formats
Station Details ID: 066022 Name: FORT DENISON Lat: -33.86 Lon: 151.23 Height: 5.0 m
Data from the previous 72 hours. | See also: Recent months for locations in New South Wales
Date/Time
EDT
Tmp

°C
App
Tmp
°C
Dew
Point
°C
Rel
Hum
%
Delta-T

°C
Wind Press
QNH
hPa
Press
MSL
hPa
Rain
since
9 am
mm
Dir
 
Spd
km/h
Gust
km/h
Spd
kts
Gust
kts
07/12:30am - - - - - SE 9 13 5 7 - - -
07/12:00am - - - - - SE 6 13 3 7 - - -
 
Date/Time
EDT
Tmp

°C
App
Tmp
°C
Dew
Point
°C
Rel
Hum
%
Delta-T

°C
Wind Press
QNH
hPa
Press
MSL
hPa
Rain
since
9 am
mm
Dir
 
Spd
km/h
Gust
km/h
Spd
kts
Gust
kts
06/11:30pm - - - - - SE 7 13 4 7 - - -
06/11:00pm - - - - - SSE 11 15 6 8 - - -
06/10:30pm - - - - - SE 11 19 6 10 - - -
06/10:00pm - - - - - SE 13 17 7 9 - - -
06/09:30pm - - - - - ESE 17 24 9 13 - - -
06/09:00pm - - - - - SE 13 17 7 9 - - -
06/08:30pm - - - - - SE 17 26 9 14 - - -
06/08:00pm - - - - - SE 17 26 9 14 - - -
06/07:30pm - - - - - ESE 20 26 11 14 - - -
06/07:00pm - - - - - ESE 20 28 11 15 - - -
06/06:30pm - - - - - ESE 22 30 12 16 - - -
06/06:00pm - - - - - ESE 28 33 15 18 - - -
06/05:30pm - - - - - ESE 24 33 13 18 - - -
06/05:00pm - - - - - ESE 24 33 13 18 - - -
06/04:30pm - - - - - ESE 28 33 15 18 - - -
06/04:00pm - - - - - ESE 26 33 14 18 - - -
06/03:30pm - - - - - ESE 19 32 10 17 - - -
06/03:00pm - - - - - ESE 20 30 11 16 - - -
06/02:30pm - - - - - ESE 24 33 13 18 - - -
06/02:00pm - - - - - ESE 22 33 12 18 - - -
06/01:30pm - - - - - ESE 24 35 13 19 - - -
06/01:00pm - - - - - ESE 26 33 14 18 - - -
06/12:30pm - - - - - ESE 26 33 14 18 - - -
06/12:00pm - - - - - ESE 24 32 13 17 - - -
06/11:30am - - - - - ESE 22 32 12 17 - - -
06/11:00am - - - - - SE 24 30 13 16 - - -
06/10:30am - - - - - SE 20 32 11 17 - - -
06/10:00am - - - - - SSE 17 26 9 14 - - -
06/09:30am - - - - - SSE 22 32 12 17 - - -
06/09:00am - - - - - SE 20 28 11 15 - - -
06/08:30am - - - - - SE 17 26 9 14 - - -
06/08:00am - - - - - SSW 9 15 5 8 - - -
06/07:30am - - - - - SE 26 37 14 20 - - -
06/07:00am - - - - - SSE 17 24 9 13 - - -
06/06:30am - - - - - SSE 17 26 9 14 - - -
06/06:00am - - - - - SSE 15 22 8 12 - - -
06/05:30am - - - - - SSE 13 19 7 10 - - -
06/05:00am - - - - - S 15 20 8 11 - - -
06/04:30am - - - - - S 15 20 8 11 - - -
06/04:00am - - - - - S 17 24 9 13 - - -
06/03:30am - - - - - SSE 20 28 11 15 - - -
06/03:00am - - - - - SSE 24 37 13 20 - - -
06/02:30am - - - - - SE 20 28 11 15 - - -
06/02:00am - - - - - SSE 19 26 10 14 - - -
06/01:30am - - - - - SSE 22 33 12 18 - - -
06/01:00am - - - - - SSE 20 35 11 19 - - -
06/12:30am - - - - - SSE 15 20 8 11 - - -
06/12:00am - - - - - SSE 15 24 8 13 - - -
 
Date/Time
EDT
Tmp

°C
App
Tmp
°C
Dew
Point
°C
Rel
Hum
%
Delta-T

°C
Wind Press
QNH
hPa
Press
MSL
hPa
Rain
since
9 am
mm
Dir
 
Spd
km/h
Gust
km/h
Spd
kts
Gust
kts
05/11:30pm - - - - - S 19 26 10 14 - - -
05/11:00pm - - - - - S 20 30 11 16 - - -
05/10:30pm - - - - - SSE 22 33 12 18 - - -
05/10:00pm - - - - - SSE 24 32 13 17 - - -
05/09:30pm - - - - - SSE 24 35 13 19 - - -
05/09:00pm - - - - - SSE 28 39 15 21 - - -
05/08:30pm - - - - - SSE 20 30 11 16 - - -
05/08:00pm - - - - - SSE 20 30 11 16 - - -
05/07:30pm - - - - - SSE 26 44 14 24 - - -
05/07:00pm - - - - - SSE 32 43 17 23 - - -
05/06:30pm - - - - - SSE 28 44 15 24 - - -
05/06:00pm - - - - - SSE 35 46 19 25 - - -
05/05:33pm - - - - - SSE 32 50 17 27 - - -
05/05:30pm - - - - - SSE 32 44 17 24 - - -
05/05:00pm - - - - - SSE 35 50 19 27 - - -
05/04:30pm - - - - - SSE 32 50 17 27 - - -
05/04:07pm - - - - - SSE 35 54 19 29 - - -
05/04:00pm - - - - - SSE 37 54 20 29 - - -
05/03:30pm - - - - - SSE 37 50 20 27 - - -
05/03:17pm - - - - - SSE 33 52 18 28 - - -
05/03:00pm - - - - - SSE 39 52 21 28 - - -
05/02:30pm - - - - - SSE 37 50 20 27 - - -
05/02:23pm - - - - - SSE 30 48 16 26 - - -
05/02:00pm - - - - - S 32 48 17 26 - - -
05/01:43pm - - - - - SSE 32 50 17 27 - - -
05/01:30pm - - - - - SSE 43 56 23 30 - - -
05/01:00pm - - - - - S 30 52 16 28 - - -
05/12:38pm - - - - - SSE 35 54 19 29 - - -
05/12:30pm - - - - - SSE 39 56 21 30 - - -
05/12:00pm - - - - - SSE 35 48 19 26 - - -
05/11:30am - - - - - SSE 28 48 15 26 - - -
05/11:22am - - - - - S 28 46 15 25 - - -
05/11:00am - - - - - SSE 28 44 15 24 - - -
05/10:47am - - - - - SSE 32 50 17 27 - - -
05/10:30am - - - - - S 20 33 11 18 - - -
05/10:00am - - - - - SSE 24 35 13 19 - - -
05/09:30am - - - - - S 26 39 14 21 - - -
05/09:12am - - - - - SSE 32 52 17 28 - - -
05/09:00am - - - - - S 32 48 17 26 - - -
05/08:47am - - - - - SSE 28 48 15 26 - - -
05/08:30am - - - - - SSE 20 35 11 19 - - -
05/08:00am - - - - - S 24 41 13 22 - - -
05/07:30am - - - - - S 20 33 11 18 - - -
05/07:00am - - - - - S 24 41 13 22 - - -
05/06:30am - - - - - S 26 41 14 22 - - -
05/06:08am - - - - - S 30 48 16 26 - - -
05/06:00am - - - - - S 24 39 13 21 - - -
05/05:30am - - - - - S 28 46 15 25 - - -
05/05:15am - - - - - SSE 28 46 15 25 - - -
05/05:00am - - - - - SSE 22 35 12 19 - - -
05/04:30am - - - - - S 24 37 13 20 - - -
05/04:00am - - - - - S 24 39 13 21 - - -
05/03:30am - - - - - S 22 37 12 20 - - -
05/03:00am - - - - - S 24 41 13 22 - - -
05/02:30am - - - - - S 20 32 11 17 - - -
05/02:00am - - - - - S 22 43 12 23 - - -
05/01:30am - - - - - S 24 35 13 19 - - -
05/01:00am - - - - - S 17 28 9 15 - - -
05/12:30am - - - - - S 22 37 12 20 - - -
05/12:04am - - - - - S 28 52 15 28 - - -
05/12:00am - - - - - S 24 52 13 28 - - -
 
Date/Time
EDT
Tmp

°C
App
Tmp
°C
Dew
Point
°C
Rel
Hum
%
Delta-T

°C
Wind Press
QNH
hPa
Press
MSL
hPa
Rain
since
9 am
mm
Dir
 
Spd
km/h
Gust
km/h
Spd
kts
Gust
kts
04/11:30pm - - - - - S 19 32 10 17 - - -
04/11:00pm - - - - - S 19 32 10 17 - - -
04/10:30pm - - - - - S 24 41 13 22 - - -
04/10:00pm - - - - - S 26 44 14 24 - - -
04/09:30pm - - - - - S 28 43 15 23 - - -
04/09:10pm - - - - - S 28 46 15 25 - - -
04/09:00pm - - - - - S 24 37 13 20 - - -
04/08:45pm - - - - - S 28 46 15 25 - - -
04/08:30pm - - - - - S 28 44 15 24 - - -
04/08:00pm - - - - - S 28 54 15 29 - - -
04/07:30pm - - - - - S 33 57 18 31 - - -
04/07:03pm - - - - - S 28 48 15 26 - - -
04/07:00pm - - - - - S 26 48 14 26 - - -
04/06:32pm - - - - - S 32 50 17 27 - - -
04/06:30pm - - - - - S 32 46 17 25 - - -
04/06:01pm - - - - - S 28 46 15 25 - - -
04/06:00pm - - - - - S 28 41 15 22 - - -
04/05:36pm - - - - - S 28 52 15 28 - - -
04/05:30pm - - - - - S 24 43 13 23 - - -
04/05:00pm - - - - - S 30 54 16 29 - - -
04/04:30pm - - - - - S 35 56 19 30 - - -
04/04:00pm - - - - - S 32 56 17 30 - - -
04/03:30pm - - - - - S 33 52 18 28 - - -
04/03:01pm - - - - - S 32 50 17 27 - - -
04/03:00pm - - - - - S 33 50 18 27 - - -
04/02:30pm - - - - - S 32 52 17 28 - - -
04/02:00pm - - - - - S 35 56 19 30 - - -
04/01:30pm - - - - - S 30 48 16 26 - - -
04/01:05pm - - - - - S 28 50 15 27 - - -
04/01:00pm - - - - - S 22 37 12 20 - - -
04/12:37pm - - - - - S 28 48 15 26 - - -
04/12:30pm - - - - - S 22 48 12 26 - - -
04/12:19pm - - - - - S 28 46 15 25 - - -
04/12:00pm - - - - - S 26 44 14 24 - - -
04/11:42am - - - - - S 26 48 14 26 - - -
04/11:39am - - - - - S 24 48 13 26 - - -
04/11:30am - - - - - SSW 19 32 10 17 - - -
04/11:00am - - - - - SSW 22 35 12 19 - - -
04/10:30am - - - - - SSW 26 44 14 24 - - -
04/10:00am - - - - - SSW 24 37 13 20 - - -
04/09:30am - - - - - SSW 26 37 14 20 - - -
04/09:00am - - - - - SSW 24 41 13 22 - - -
04/08:46am - - - - - SSW 28 52 15 28 - - -
04/08:30am - - - - - SSW 30 41 16 22 - - -
04/08:00am - - - - - SSW 19 32 10 17 - - -
04/07:30am - - - - - SSW 26 41 14 22 - - -
04/07:00am - - - - - SSW 22 41 12 22 - - -
04/06:30am - - - - - SSW 24 39 13 21 - - -
04/06:00am - - - - - SSW 22 33 12 18 - - -
04/05:30am - - - - - S 20 35 11 19 - - -
04/05:00am - - - - - S 26 37 14 20 - - -
04/04:30am - - - - - SSE 24 37 13 20 - - -
04/04:00am - - - - - S 22 32 12 17 - - -
04/03:30am - - - - - S 20 32 11 17 - - -
04/03:00am - - - - - SSE 26 44 14 24 - - -
04/02:30am - - - - - S 26 43 14 23 - - -
04/02:00am - - - - - S 20 41 11 22 - - -
04/01:30am - - - - - S 17 26 9 14 - - -
04/01:09am - - - - - SSE 28 52 15 28 - - -
04/01:00am - - - - - S 24 37 13 20 - - -

Latest Capital City Observations: Canberra | Sydney | Melbourne | Brisbane | Adelaide | Perth | Hobart | Darwin

Other Formats:

Comma delimited format used in spreadsheet applications
http://www.bom.gov.au/fwo/IDN60901/IDN60901.94769.axf

JavaScript Object Notation format (JSON) in row-major order
http://www.bom.gov.au/fwo/IDN60901/IDN60901.94769.json